sensor_id;sensor_type;location;lat;lon;timestamp;temperature;humidity
38237;DHT22;50101;49.438;11.098;2022-08-01T00:00:07;24.20;57.10
38237;DHT22;50101;49.438;11.098;2022-08-01T00:02:36;24.20;57.10
38237;DHT22;50101;49.438;11.098;2022-08-01T00:05:08;24.20;57.10
38237;DHT22;50101;49.438;11.098;2022-08-01T00:07:35;24.20;57.00
38237;DHT22;50101;49.438;11.098;2022-08-01T00:10:04;24.20;57.10
38237;DHT22;50101;49.438;11.098;2022-08-01T00:12:31;24.20;57.00
38237;DHT22;50101;49.438;11.098;2022-08-01T00:14:58;24.20;57.00
38237;DHT22;50101;49.438;11.098;2022-08-01T00:17:24;24.20;57.00
38237;DHT22;50101;49.438;11.098;2022-08-01T00:19:51;24.20;57.00
38237;DHT22;50101;49.438;11.098;2022-08-01T00:22:18;24.20;57.00
38237;DHT22;50101;49.438;11.098;2022-08-01T00:24:44;24.10;56.80
38237;DHT22;50101;49.438;11.098;2022-08-01T00:27:11;24.20;56.90
38237;DHT22;50101;49.438;11.098;2022-08-01T00:29:38;24.20;57.00
38237;DHT22;50101;49.438;11.098;2022-08-01T00:32:24;24.10;56.80
38237;DHT22;50101;49.438;11.098;2022-08-01T00:34:51;24.20;56.70
38237;DHT22;50101;49.438;11.098;2022-08-01T00:37:19;24.20;56.50
38237;DHT22;50101;49.438;11.098;2022-08-01T00:39:46;24.30;56.50
38237;DHT22;50101;49.438;11.098;2022-08-01T00:42:21;24.30;56.40
38237;DHT22;50101;49.438;11.098;2022-08-01T00:44:48;24.30;56.30
38237;DHT22;50101;49.438;11.098;2022-08-01T00:47:15;24.30;56.40
38237;DHT22;50101;49.438;11.098;2022-08-01T00:49:42;24.30;56.60
38237;DHT22;50101;49.438;11.098;2022-08-01T00:52:09;24.20;56.50
38237;DHT22;50101;49.438;11.098;2022-08-01T00:54:36;24.20;56.60
38237;DHT22;50101;49.438;11.098;2022-08-01T00:57:03;24.20;56.50
38237;DHT22;50101;49.438;11.098;2022-08-01T00:59:36;24.20;56.40
38237;DHT22;50101;49.438;11.098;2022-08-01T01:02:04;24.30;56.30
38237;DHT22;50101;49.438;11.098;2022-08-01T01:04:40;24.30;56.10
38237;DHT22;50101;49.438;11.098;2022-08-01T01:07:16;24.30;56.20
38237;DHT22;50101;49.438;11.098;2022-08-01T01:10:02;24.20;56.10
38237;DHT22;50101;49.438;11.098;2022-08-01T01:17:58;24.30;56.30
38237;DHT22;50101;49.438;11.098;2022-08-01T01:20:38;24.30;56.20
38237;DHT22;50101;49.438;11.098;2022-08-01T01:29:06;24.30;56.20
38237;DHT22;50101;49.438;11.098;2022-08-01T01:31:59;24.30;56.10
38237;DHT22;50101;49.438;11.098;2022-08-01T01:34:31;24.30;56.10
38237;DHT22;50101;49.438;11.098;2022-08-01T01:37:02;24.30;56.10
38237;DHT22;50101;49.438;11.098;2022-08-01T01:39:30;24.20;56.00
38237;DHT22;50101;49.438;11.098;2022-08-01T01:41:57;24.30;56.10
38237;DHT22;50101;49.438;11.098;2022-08-01T01:44:26;24.30;56.10
38237;DHT22;50101;49.438;11.098;2022-08-01T01:46:54;24.30;56.10
38237;DHT22;50101;49.438;11.098;2022-08-01T01:49:24;24.30;56.10
38237;DHT22;50101;49.438;11.098;2022-08-01T01:51:54;24.30;56.10
38237;DHT22;50101;49.438;11.098;2022-08-01T01:54:32;24.20;56.00
38237;DHT22;50101;49.438;11.098;2022-08-01T01:57:02;24.20;56.10
38237;DHT22;50101;49.438;11.098;2022-08-01T01:59:33;24.30;56.20
38237;DHT22;50101;49.438;11.098;2022-08-01T02:02:03;24.20;56.10
38237;DHT22;50101;49.438;11.098;2022-08-01T02:04:36;24.20;56.10
38237;DHT22;50101;49.438;11.098;2022-08-01T02:07:05;24.20;56.20
38237;DHT22;50101;49.438;11.098;2022-08-01T02:09:35;24.20;56.00
38237;DHT22;50101;49.438;11.098;2022-08-01T02:12:04;24.20;56.30
38237;DHT22;50101;49.438;11.098;2022-08-01T02:14:35;24.20;56.20
38237;DHT22;50101;49.438;11.098;2022-08-01T02:17:02;24.20;56.20
38237;DHT22;50101;49.438;11.098;2022-08-01T02:19:32;24.20;56.20
38237;DHT22;50101;49.438;11.098;2022-08-01T02:22:14;24.20;56.00
38237;DHT22;50101;49.438;11.098;2022-08-01T02:25:02;24.20;56.10
38237;DHT22;50101;49.438;11.098;2022-08-01T02:30:24;24.20;56.20
38237;DHT22;50101;49.438;11.098;2022-08-01T02:33:00;24.20;56.20
38237;DHT22;50101;49.438;11.098;2022-08-01T02:35:30;24.10;56.10
38237;DHT22;50101;49.438;11.098;2022-08-01T02:37:58;24.20;56.30
38237;DHT22;50101;49.438;11.098;2022-08-01T02:40:29;24.20;56.30
38237;DHT22;50101;49.438;11.098;2022-08-01T02:42:57;24.20;56.20
38237;DHT22;50101;49.438;11.098;2022-08-01T02:45:26;24.20;56.30
38237;DHT22;50101;49.438;11.098;2022-08-01T02:47:59;24.20;56.20
38237;DHT22;50101;49.438;11.098;2022-08-01T02:50:29;24.20;56.10
38237;DHT22;50101;49.438;11.098;2022-08-01T02:52:58;24.20;56.20
38237;DHT22;50101;49.438;11.098;2022-08-01T02:55:26;24.20;56.20
38237;DHT22;50101;49.438;11.098;2022-08-01T02:57:55;24.20;56.10
38237;DHT22;50101;49.438;11.098;2022-08-01T03:00:27;24.20;56.10
38237;DHT22;50101;49.438;11.098;2022-08-01T03:02:56;24.20;56.00
38237;DHT22;50101;49.438;11.098;2022-08-01T03:05:25;24.20;56.20
38237;DHT22;50101;49.438;11.098;2022-08-01T03:07:53;24.20;56.10
38237;DHT22;50101;49.438;11.098;2022-08-01T03:10:21;24.20;56.10
38237;DHT22;50101;49.438;11.098;2022-08-01T03:12:50;24.20;56.10
38237;DHT22;50101;49.438;11.098;2022-08-01T03:15:17;24.20;56.10
38237;DHT22;50101;49.438;11.098;2022-08-01T03:17:47;24.20;56.10
38237;DHT22;50101;49.438;11.098;2022-08-01T03:20:15;24.20;56.10
38237;DHT22;50101;49.438;11.098;2022-08-01T03:22:43;24.20;56.10
38237;DHT22;50101;49.438;11.098;2022-08-01T03:25:13;24.20;56.10
38237;DHT22;50101;49.438;11.098;2022-08-01T03:27:42;24.20;56.80
38237;DHT22;50101;49.438;11.098;2022-08-01T03:30:10;24.20;56.20
38237;DHT22;50101;49.438;11.098;2022-08-01T03:32:38;24.20;56.10
38237;DHT22;50101;49.438;11.098;2022-08-01T03:35:05;24.10;56.10
38237;DHT22;50101;49.438;11.098;2022-08-01T03:37:43;24.10;56.20
38237;DHT22;50101;49.438;11.098;2022-08-01T03:40:39;24.20;56.20
38237;DHT22;50101;49.438;11.098;2022-08-01T03:43:16;24.10;56.10
38237;DHT22;50101;49.438;11.098;2022-08-01T03:45:49;24.10;56.10
38237;DHT22;50101;49.438;11.098;2022-08-01T03:48:18;24.10;56.10
38237;DHT22;50101;49.438;11.098;2022-08-01T03:50:51;24.10;56.10
38237;DHT22;50101;49.438;11.098;2022-08-01T03:53:22;24.20;56.20
38237;DHT22;50101;49.438;11.098;2022-08-01T03:55:52;24.10;56.10
38237;DHT22;50101;49.438;11.098;2022-08-01T03:58:21;24.10;56.10
38237;DHT22;50101;49.438;11.098;2022-08-01T04:00:48;24.10;56.20
38237;DHT22;50101;49.438;11.098;2022-08-01T04:03:16;24.10;56.10
38237;DHT22;50101;49.438;11.098;2022-08-01T04:05:43;24.10;56.10
38237;DHT22;50101;49.438;11.098;2022-08-01T04:08:10;24.10;56.10
38237;DHT22;50101;49.438;11.098;2022-08-01T04:10:37;24.10;56.10
38237;DHT22;50101;49.438;11.098;2022-08-01T04:13:04;24.10;56.10
38237;DHT22;50101;49.438;11.098;2022-08-01T04:15:31;24.10;56.10
38237;DHT22;50101;49.438;11.098;2022-08-01T04:17:58;24.10;56.10
38237;DHT22;50101;49.438;11.098;2022-08-01T04:20:25;24.10;56.10
38237;DHT22;50101;49.438;11.098;2022-08-01T04:22:51;24.10;56.10
38237;DHT22;50101;49.438;11.098;2022-08-01T04:25:28;24.10;55.60
38237;DHT22;50101;49.438;11.098;2022-08-01T04:27:57;24.10;56.10
38237;DHT22;50101;49.438;11.098;2022-08-01T04:30:26;24.10;56.80
38237;DHT22;50101;49.438;11.098;2022-08-01T04:32:55;24.10;56.10
38237;DHT22;50101;49.438;11.098;2022-08-01T04:35:24;24.10;56.20
38237;DHT22;50101;49.438;11.098;2022-08-01T04:38:13;24.10;56.20
38237;DHT22;50101;49.438;11.098;2022-08-01T04:40:44;24.10;56.20
38237;DHT22;50101;49.438;11.098;2022-08-01T04:43:14;24.10;56.20
38237;DHT22;50101;49.438;11.098;2022-08-01T04:45:42;24.10;56.30
38237;DHT22;50101;49.438;11.098;2022-08-01T04:48:11;24.10;57.00
38237;DHT22;50101;49.438;11.098;2022-08-01T04:50:38;24.10;56.40
38237;DHT22;50101;49.438;11.098;2022-08-01T04:53:18;24.10;56.40
38237;DHT22;50101;49.438;11.098;2022-08-01T04:55:46;24.10;56.30
38237;DHT22;50101;49.438;11.098;2022-08-01T04:58:14;24.10;56.40
38237;DHT22;50101;49.438;11.098;2022-08-01T05:00:44;24.10;56.40
38237;DHT22;50101;49.438;11.098;2022-08-01T05:03:11;24.10;56.40
38237;DHT22;50101;49.438;11.098;2022-08-01T05:05:37;24.10;56.40
38237;DHT22;50101;49.438;11.098;2022-08-01T05:08:04;24.10;56.50
38237;DHT22;50101;49.438;11.098;2022-08-01T05:10:32;24.10;56.40
38237;DHT22;50101;49.438;11.098;2022-08-01T05:12:59;24.10;56.50
38237;DHT22;50101;49.438;11.098;2022-08-01T05:15:26;24.10;56.60
38237;DHT22;50101;49.438;11.098;2022-08-01T05:17:54;24.10;56.60
38237;DHT22;50101;49.438;11.098;2022-08-01T05:20:20;24.10;56.60
38237;DHT22;50101;49.438;11.098;2022-08-01T05:22:47;24.10;56.10
38237;DHT22;50101;49.438;11.098;2022-08-01T05:25:14;24.10;56.70
38237;DHT22;50101;49.438;11.098;2022-08-01T05:27:46;24.10;56.80
38237;DHT22;50101;49.438;11.098;2022-08-01T05:30:15;24.10;56.80
38237;DHT22;50101;49.438;11.098;2022-08-01T05:32:41;24.10;56.80
38237;DHT22;50101;49.438;11.098;2022-08-01T05:35:08;24.10;56.40
38237;DHT22;50101;49.438;11.098;2022-08-01T05:37:35;24.10;56.90
38237;DHT22;50101;49.438;11.098;2022-08-01T05:40:02;24.10;57.00
38237;DHT22;50101;49.438;11.098;2022-08-01T05:44:57;24.10;56.50
38237;DHT22;50101;49.438;11.098;2022-08-01T05:47:23;24.10;57.10
38237;DHT22;50101;49.438;11.098;2022-08-01T05:49:50;24.10;57.10
38237;DHT22;50101;49.438;11.098;2022-08-01T05:52:17;24.10;57.10
38237;DHT22;50101;49.438;11.098;2022-08-01T05:54:43;24.20;57.20
38237;DHT22;50101;49.438;11.098;2022-08-01T05:57:10;24.10;57.60
38237;DHT22;50101;49.438;11.098;2022-08-01T05:59:38;24.10;57.30
38237;DHT22;50101;49.438;11.098;2022-08-01T06:02:04;24.10;57.30
38237;DHT22;50101;49.438;11.098;2022-08-01T06:04:31;24.10;56.70
38237;DHT22;50101;49.438;11.098;2022-08-01T06:06:58;24.10;57.00
38237;DHT22;50101;49.438;11.098;2022-08-01T06:09:25;24.10;57.50
38237;DHT22;50101;49.438;11.098;2022-08-01T06:11:52;24.00;57.80
38237;DHT22;50101;49.438;11.098;2022-08-01T06:14:18;24.00;58.00
38237;DHT22;50101;49.438;11.098;2022-08-01T06:16:45;24.00;58.30
38237;DHT22;50101;49.438;11.098;2022-08-01T06:19:12;24.00;58.30
38237;DHT22;50101;49.438;11.098;2022-08-01T06:21:38;24.00;58.40
38237;DHT22;50101;49.438;11.098;2022-08-01T06:24:05;24.10;58.50
38237;DHT22;50101;49.438;11.098;2022-08-01T06:26:32;24.10;58.60
38237;DHT22;50101;49.438;11.098;2022-08-01T06:28:59;24.10;58.60
38237;DHT22;50101;49.438;11.098;2022-08-01T06:31:26;24.10;58.90
38237;DHT22;50101;49.438;11.098;2022-08-01T06:33:58;24.10;58.80
38237;DHT22;50101;49.438;11.098;2022-08-01T06:36:25;24.10;58.90
38237;DHT22;50101;49.438;11.098;2022-08-01T06:38:52;24.10;58.80
38237;DHT22;50101;49.438;11.098;2022-08-01T06:41:22;24.10;59.00
38237;DHT22;50101;49.438;11.098;2022-08-01T06:43:51;24.10;58.90
38237;DHT22;50101;49.438;11.098;2022-08-01T06:46:18;24.10;59.40
38237;DHT22;50101;49.438;11.098;2022-08-01T06:48:44;24.20;59.20
38237;DHT22;50101;49.438;11.098;2022-08-01T06:51:11;24.10;60.10
38237;DHT22;50101;49.438;11.098;2022-08-01T06:53:41;24.10;60.50
38237;DHT22;50101;49.438;11.098;2022-08-01T06:56:10;24.10;61.10
38237;DHT22;50101;49.438;11.098;2022-08-01T06:58:37;24.10;61.50
38237;DHT22;50101;49.438;11.098;2022-08-01T07:01:05;24.10;61.30
38237;DHT22;50101;49.438;11.098;2022-08-01T07:03:35;24.20;61.20
38237;DHT22;50101;49.438;11.098;2022-08-01T07:06:21;24.20;60.80
38237;DHT22;50101;49.438;11.098;2022-08-01T07:08:48;24.20;60.60
38237;DHT22;50101;49.438;11.098;2022-08-01T07:11:15;24.20;60.70
38237;DHT22;50101;49.438;11.098;2022-08-01T07:13:41;24.20;60.50
38237;DHT22;50101;49.438;11.098;2022-08-01T07:16:12;24.20;60.60
38237;DHT22;50101;49.438;11.098;2022-08-01T07:18:39;24.20;60.70
38237;DHT22;50101;49.438;11.098;2022-08-01T07:21:06;24.20;60.80
38237;DHT22;50101;49.438;11.098;2022-08-01T07:23:52;24.10;60.30
38237;DHT22;50101;49.438;11.098;2022-08-01T07:26:21;24.10;60.70
38237;DHT22;50101;49.438;11.098;2022-08-01T07:28:47;24.20;61.00
38237;DHT22;50101;49.438;11.098;2022-08-01T07:31:14;24.20;61.00
38237;DHT22;50101;49.438;11.098;2022-08-01T07:33:41;24.20;60.20
38237;DHT22;50101;49.438;11.098;2022-08-01T07:36:15;24.20;61.00
38237;DHT22;50101;49.438;11.098;2022-08-01T07:38:42;24.20;60.90
38237;DHT22;50101;49.438;11.098;2022-08-01T07:41:08;24.20;60.90
38237;DHT22;50101;49.438;11.098;2022-08-01T07:43:35;24.20;60.30
38237;DHT22;50101;49.438;11.098;2022-08-01T07:46:03;24.20;60.60
38237;DHT22;50101;49.438;11.098;2022-08-01T07:48:30;24.30;60.50
38237;DHT22;50101;49.438;11.098;2022-08-01T07:50:57;24.30;60.60
38237;DHT22;50101;49.438;11.098;2022-08-01T07:53:23;24.30;60.50
38237;DHT22;50101;49.438;11.098;2022-08-01T07:55:50;24.30;61.10
38237;DHT22;50101;49.438;11.098;2022-08-01T07:58:17;24.20;61.10
38237;DHT22;50101;49.438;11.098;2022-08-01T08:00:44;24.20;61.60
38237;DHT22;50101;49.438;11.098;2022-08-01T08:03:10;24.20;61.40
38237;DHT22;50101;49.438;11.098;2022-08-01T08:05:37;24.10;61.60
38237;DHT22;50101;49.438;11.098;2022-08-01T08:08:24;24.20;61.80
38237;DHT22;50101;49.438;11.098;2022-08-01T08:10:51;24.20;62.10
38237;DHT22;50101;49.438;11.098;2022-08-01T08:13:17;24.30;61.60
38237;DHT22;50101;49.438;11.098;2022-08-01T08:15:46;24.30;61.50
38237;DHT22;50101;49.438;11.098;2022-08-01T08:18:14;24.30;61.70
38237;DHT22;50101;49.438;11.098;2022-08-01T08:20:41;24.40;61.40
38237;DHT22;50101;49.438;11.098;2022-08-01T08:23:07;24.40;60.70
38237;DHT22;50101;49.438;11.098;2022-08-01T08:26:09;24.40;61.50
38237;DHT22;50101;49.438;11.098;2022-08-01T08:28:36;24.40;61.10
38237;DHT22;50101;49.438;11.098;2022-08-01T08:31:03;24.30;61.10
38237;DHT22;50101;49.438;11.098;2022-08-01T08:33:29;24.40;60.20
38237;DHT22;50101;49.438;11.098;2022-08-01T08:35:56;24.40;60.70
38237;DHT22;50101;49.438;11.098;2022-08-01T08:38:23;24.40;60.70
38237;DHT22;50101;49.438;11.098;2022-08-01T08:40:56;24.40;60.70
38237;DHT22;50101;49.438;11.098;2022-08-01T08:43:24;24.40;60.00
38237;DHT22;50101;49.438;11.098;2022-08-01T08:45:52;24.40;60.70
38237;DHT22;50101;49.438;11.098;2022-08-01T08:48:25;24.50;60.70
38237;DHT22;50101;49.438;11.098;2022-08-01T08:50:53;24.40;60.60
38237;DHT22;50101;49.438;11.098;2022-08-01T08:53:22;24.40;60.60
38237;DHT22;50101;49.438;11.098;2022-08-01T08:55:49;24.40;60.60
38237;DHT22;50101;49.438;11.098;2022-08-01T08:58:22;24.40;60.60
38237;DHT22;50101;49.438;11.098;2022-08-01T09:00:57;24.40;60.50
38237;DHT22;50101;49.438;11.098;2022-08-01T09:03:24;24.40;60.50
38237;DHT22;50101;49.438;11.098;2022-08-01T09:05:51;24.40;60.50
38237;DHT22;50101;49.438;11.098;2022-08-01T09:08:18;24.40;60.20
38237;DHT22;50101;49.438;11.098;2022-08-01T09:10:44;24.40;60.20
38237;DHT22;50101;49.438;11.098;2022-08-01T09:13:13;24.40;60.30
38237;DHT22;50101;49.438;11.098;2022-08-01T09:18:32;24.40;60.40
38237;DHT22;50101;49.438;11.098;2022-08-01T09:23:55;24.40;60.40
38237;DHT22;50101;49.438;11.098;2022-08-01T09:26:29;24.50;60.50
38237;DHT22;50101;49.438;11.098;2022-08-01T09:28:57;24.60;60.40
38237;DHT22;50101;49.438;11.098;2022-08-01T09:31:27;24.60;60.30
38237;DHT22;50101;49.438;11.098;2022-08-01T09:34:04;24.60;60.30
38237;DHT22;50101;49.438;11.098;2022-08-01T09:36:57;24.60;60.20
38237;DHT22;50101;49.438;11.098;2022-08-01T09:39:29;24.50;60.30
38237;DHT22;50101;49.438;11.098;2022-08-01T09:41:59;24.50;60.50
38237;DHT22;50101;49.438;11.098;2022-08-01T09:44:39;24.50;60.70
38237;DHT22;50101;49.438;11.098;2022-08-01T09:47:20;24.50;60.60
38237;DHT22;50101;49.438;11.098;2022-08-01T09:49:57;24.50;60.60
38237;DHT22;50101;49.438;11.098;2022-08-01T09:52:27;24.60;60.60
38237;DHT22;50101;49.438;11.098;2022-08-01T09:54:59;24.50;60.60
38237;DHT22;50101;49.438;11.098;2022-08-01T09:57:28;24.50;60.50
38237;DHT22;50101;49.438;11.098;2022-08-01T09:59:58;24.50;61.00
38237;DHT22;50101;49.438;11.098;2022-08-01T10:02:34;24.60;60.90
38237;DHT22;50101;49.438;11.098;2022-08-01T10:05:03;24.60;60.20
38237;DHT22;50101;49.438;11.098;2022-08-01T10:07:58;24.60;60.90
38237;DHT22;50101;49.438;11.098;2022-08-01T10:10:26;24.50;60.90
38237;DHT22;50101;49.438;11.098;2022-08-01T10:12:56;24.50;60.70
38237;DHT22;50101;49.438;11.098;2022-08-01T10:15:25;24.50;61.00
38237;DHT22;50101;49.438;11.098;2022-08-01T10:18:06;24.60;60.90
38237;DHT22;50101;49.438;11.098;2022-08-01T10:20:52;24.60;60.30
38237;DHT22;50101;49.438;11.098;2022-08-01T10:23:26;24.70;60.10
38237;DHT22;50101;49.438;11.098;2022-08-01T10:26:07;24.70;60.30
38237;DHT22;50101;49.438;11.098;2022-08-01T10:28:35;24.80;60.00
38237;DHT22;50101;49.438;11.098;2022-08-01T10:31:06;24.80;59.50
38237;DHT22;50101;49.438;11.098;2022-08-01T10:33:39;24.80;58.90
38237;DHT22;50101;49.438;11.098;2022-08-01T10:36:21;24.70;59.40
38237;DHT22;50101;49.438;11.098;2022-08-01T10:38:52;24.80;59.40
38237;DHT22;50101;49.438;11.098;2022-08-01T10:41:21;24.80;59.60
38237;DHT22;50101;49.438;11.098;2022-08-01T10:43:48;24.80;59.70
38237;DHT22;50101;49.438;11.098;2022-08-01T10:46:15;24.80;59.60
38237;DHT22;50101;49.438;11.098;2022-08-01T10:48:49;24.80;59.50
38237;DHT22;50101;49.438;11.098;2022-08-01T10:51:19;24.80;59.70
38237;DHT22;50101;49.438;11.098;2022-08-01T10:53:53;24.80;59.90
38237;DHT22;50101;49.438;11.098;2022-08-01T10:56:23;24.70;59.80
38237;DHT22;50101;49.438;11.098;2022-08-01T10:59:02;24.80;60.30
38237;DHT22;50101;49.438;11.098;2022-08-01T11:01:36;24.80;60.10
38237;DHT22;50101;49.438;11.098;2022-08-01T11:09:02;24.90;59.70
38237;DHT22;50101;49.438;11.098;2022-08-01T11:11:32;24.80;59.60
38237;DHT22;50101;49.438;11.098;2022-08-01T11:14:04;24.80;59.50
38237;DHT22;50101;49.438;11.098;2022-08-01T11:16:38;24.80;59.50
38237;DHT22;50101;49.438;11.098;2022-08-01T11:19:07;24.80;59.40
38237;DHT22;50101;49.438;11.098;2022-08-01T11:27:24;24.80;59.40
38237;DHT22;50101;49.438;11.098;2022-08-01T11:32:56;24.90;59.40
38237;DHT22;50101;49.438;11.098;2022-08-01T11:35:39;24.90;59.50
38237;DHT22;50101;49.438;11.098;2022-08-01T11:38:28;24.80;59.50
38237;DHT22;50101;49.438;11.098;2022-08-01T11:44:03;24.90;60.10
38237;DHT22;50101;49.438;11.098;2022-08-01T11:46:57;24.90;60.20
38237;DHT22;50101;49.438;11.098;2022-08-01T11:52:23;24.80;60.00
38237;DHT22;50101;49.438;11.098;2022-08-01T11:54:55;24.90;60.10
38237;DHT22;50101;49.438;11.098;2022-08-01T11:57:31;24.90;60.60
38237;DHT22;50101;49.438;11.098;2022-08-01T12:00:14;24.90;60.90
38237;DHT22;50101;49.438;11.098;2022-08-01T12:02:45;25.00;60.80
38237;DHT22;50101;49.438;11.098;2022-08-01T12:05:14;25.00;60.90
38237;DHT22;50101;49.438;11.098;2022-08-01T12:07:44;24.90;61.20
38237;DHT22;50101;49.438;11.098;2022-08-01T12:10:15;24.90;61.10
38237;DHT22;50101;49.438;11.098;2022-08-01T12:12:48;24.90;61.30
38237;DHT22;50101;49.438;11.098;2022-08-01T12:15:16;24.90;61.50
38237;DHT22;50101;49.438;11.098;2022-08-01T12:18:04;24.90;61.60
38237;DHT22;50101;49.438;11.098;2022-08-01T12:20:39;24.90;61.70
38237;DHT22;50101;49.438;11.098;2022-08-01T12:23:22;24.90;61.00
38237;DHT22;50101;49.438;11.098;2022-08-01T12:25:52;24.90;61.20
38237;DHT22;50101;49.438;11.098;2022-08-01T12:28:19;24.90;61.00
38237;DHT22;50101;49.438;11.098;2022-08-01T12:30:48;24.90;61.10
38237;DHT22;50101;49.438;11.098;2022-08-01T12:33:17;25.00;61.30
38237;DHT22;50101;49.438;11.098;2022-08-01T12:35:45;25.00;61.40
38237;DHT22;50101;49.438;11.098;2022-08-01T12:38:20;24.90;61.20
38237;DHT22;50101;49.438;11.098;2022-08-01T12:40:51;24.90;61.20
38237;DHT22;50101;49.438;11.098;2022-08-01T12:43:22;24.90;61.30
38237;DHT22;50101;49.438;11.098;2022-08-01T12:45:55;24.90;61.20
38237;DHT22;50101;49.438;11.098;2022-08-01T12:48:24;24.90;61.20
38237;DHT22;50101;49.438;11.098;2022-08-01T12:50:52;24.90;61.80
38237;DHT22;50101;49.438;11.098;2022-08-01T12:53:20;24.90;61.60
38237;DHT22;50101;49.438;11.098;2022-08-01T12:55:50;24.90;61.50
38237;DHT22;50101;49.438;11.098;2022-08-01T12:58:31;24.90;61.20
38237;DHT22;50101;49.438;11.098;2022-08-01T13:01:06;24.90;61.60
38237;DHT22;50101;49.438;11.098;2022-08-01T13:03:34;24.90;61.70
38237;DHT22;50101;49.438;11.098;2022-08-01T13:06:01;24.90;61.50
38237;DHT22;50101;49.438;11.098;2022-08-01T13:08:35;24.90;61.60
38237;DHT22;50101;49.438;11.098;2022-08-01T13:11:08;25.00;61.50
38237;DHT22;50101;49.438;11.098;2022-08-01T13:13:41;25.00;61.60
38237;DHT22;50101;49.438;11.098;2022-08-01T13:16:08;25.00;61.70
38237;DHT22;50101;49.438;11.098;2022-08-01T13:18:48;25.00;61.30
38237;DHT22;50101;49.438;11.098;2022-08-01T13:21:21;25.00;61.60
38237;DHT22;50101;49.438;11.098;2022-08-01T13:26:51;25.00;61.20
38237;DHT22;50101;49.438;11.098;2022-08-01T13:29:20;25.00;60.90
38237;DHT22;50101;49.438;11.098;2022-08-01T13:31:47;24.90;61.00
38237;DHT22;50101;49.438;11.098;2022-08-01T13:34:15;25.00;61.00
38237;DHT22;50101;49.438;11.098;2022-08-01T13:36:42;25.00;61.00
38237;DHT22;50101;49.438;11.098;2022-08-01T13:39:14;24.90;60.80
38237;DHT22;50101;49.438;11.098;2022-08-01T13:42:00;25.00;61.10
38237;DHT22;50101;49.438;11.098;2022-08-01T13:44:27;24.90;61.20
38237;DHT22;50101;49.438;11.098;2022-08-01T13:46:53;25.00;60.90
38237;DHT22;50101;49.438;11.098;2022-08-01T13:49:23;24.90;60.80
38237;DHT22;50101;49.438;11.098;2022-08-01T13:51:49;24.90;60.70
38237;DHT22;50101;49.438;11.098;2022-08-01T13:54:17;25.00;60.90
38237;DHT22;50101;49.438;11.098;2022-08-01T13:56:44;25.00;60.80
38237;DHT22;50101;49.438;11.098;2022-08-01T13:59:11;24.90;60.80
38237;DHT22;50101;49.438;11.098;2022-08-01T14:01:38;24.90;60.60
38237;DHT22;50101;49.438;11.098;2022-08-01T14:04:05;25.00;60.80
38237;DHT22;50101;49.438;11.098;2022-08-01T14:06:32;24.90;60.60
38237;DHT22;50101;49.438;11.098;2022-08-01T14:08:59;24.90;60.60
38237;DHT22;50101;49.438;11.098;2022-08-01T14:11:27;25.00;60.70
38237;DHT22;50101;49.438;11.098;2022-08-01T14:14:03;25.00;60.90
38237;DHT22;50101;49.438;11.098;2022-08-01T14:16:34;25.00;60.70
38237;DHT22;50101;49.438;11.098;2022-08-01T14:19:02;25.00;60.60
38237;DHT22;50101;49.438;11.098;2022-08-01T14:21:29;25.00;60.60
38237;DHT22;50101;49.438;11.098;2022-08-01T14:23:56;24.90;60.70
38237;DHT22;50101;49.438;11.098;2022-08-01T14:26:22;25.00;60.70
38237;DHT22;50101;49.438;11.098;2022-08-01T14:28:49;25.00;60.60
38237;DHT22;50101;49.438;11.098;2022-08-01T14:31:16;25.00;60.60
38237;DHT22;50101;49.438;11.098;2022-08-01T14:33:42;25.00;60.60
38237;DHT22;50101;49.438;11.098;2022-08-01T14:36:09;25.00;60.60
38237;DHT22;50101;49.438;11.098;2022-08-01T14:38:56;24.90;60.50
38237;DHT22;50101;49.438;11.098;2022-08-01T14:41:25;25.00;60.70
38237;DHT22;50101;49.438;11.098;2022-08-01T14:43:53;24.90;60.60
38237;DHT22;50101;49.438;11.098;2022-08-01T14:46:20;24.90;60.70
38237;DHT22;50101;49.438;11.098;2022-08-01T14:48:46;24.90;60.70
38237;DHT22;50101;49.438;11.098;2022-08-01T14:51:13;24.90;60.70
38237;DHT22;50101;49.438;11.098;2022-08-01T14:53:40;24.90;61.00
38237;DHT22;50101;49.438;11.098;2022-08-01T14:56:12;24.90;60.80
38237;DHT22;50101;49.438;11.098;2022-08-01T14:58:39;24.90;60.90
38237;DHT22;50101;49.438;11.098;2022-08-01T15:01:06;25.00;61.20
38237;DHT22;50101;49.438;11.098;2022-08-01T15:03:32;25.00;61.20
38237;DHT22;50101;49.438;11.098;2022-08-01T15:05:59;24.90;61.20
38237;DHT22;50101;49.438;11.098;2022-08-01T15:08:26;25.00;61.10
38237;DHT22;50101;49.438;11.098;2022-08-01T15:10:53;24.90;61.10
38237;DHT22;50101;49.438;11.098;2022-08-01T15:13:22;25.00;60.30
38237;DHT22;50101;49.438;11.098;2022-08-01T15:15:49;25.00;60.90
38237;DHT22;50101;49.438;11.098;2022-08-01T15:18:16;25.00;61.00
38237;DHT22;50101;49.438;11.098;2022-08-01T15:20:42;25.00;60.80
38237;DHT22;50101;49.438;11.098;2022-08-01T15:23:09;25.00;60.70
38237;DHT22;50101;49.438;11.098;2022-08-01T15:25:36;25.00;60.10
38237;DHT22;50101;49.438;11.098;2022-08-01T15:28:10;24.90;60.70
38237;DHT22;50101;49.438;11.098;2022-08-01T15:30:38;25.00;60.70
38237;DHT22;50101;49.438;11.098;2022-08-01T15:33:05;25.00;60.80
38237;DHT22;50101;49.438;11.098;2022-08-01T15:35:31;25.00;60.70
38237;DHT22;50101;49.438;11.098;2022-08-01T15:37:58;25.00;60.80
38237;DHT22;50101;49.438;11.098;2022-08-01T15:40:25;25.00;60.70
38237;DHT22;50101;49.438;11.098;2022-08-01T15:42:53;24.90;60.00
38237;DHT22;50101;49.438;11.098;2022-08-01T15:45:19;25.00;61.50
38237;DHT22;50101;49.438;11.098;2022-08-01T15:48:07;25.00;60.80
38237;DHT22;50101;49.438;11.098;2022-08-01T15:50:34;25.00;60.90
38237;DHT22;50101;49.438;11.098;2022-08-01T15:53:04;25.00;60.90
38237;DHT22;50101;49.438;11.098;2022-08-01T15:55:31;25.00;60.80
38237;DHT22;50101;49.438;11.098;2022-08-01T15:57:58;25.00;61.30
38237;DHT22;50101;49.438;11.098;2022-08-01T16:00:24;25.10;60.90
38237;DHT22;50101;49.438;11.098;2022-08-01T16:02:59;25.00;59.90
38237;DHT22;50101;49.438;11.098;2022-08-01T16:05:25;25.00;60.60
38237;DHT22;50101;49.438;11.098;2022-08-01T16:07:52;24.90;60.50
38237;DHT22;50101;49.438;11.098;2022-08-01T16:10:28;24.90;60.40
38237;DHT22;50101;49.438;11.098;2022-08-01T16:12:55;24.90;60.40
38237;DHT22;50101;49.438;11.098;2022-08-01T16:15:22;24.80;60.40
38237;DHT22;50101;49.438;11.098;2022-08-01T16:18:03;24.80;60.40